sensor_id;sensor_type;location;lat;lon;timestamp;temperature;humidity
11152;DHT22;5630;49.342;10.802;2022-12-07T00:01:38;2.90;99.90
11152;DHT22;5630;49.342;10.802;2022-12-07T00:04:05;2.90;99.90
11152;DHT22;5630;49.342;10.802;2022-12-07T00:08:58;2.80;99.90
11152;DHT22;5630;49.342;10.802;2022-12-07T00:11:24;2.90;99.90
11152;DHT22;5630;49.342;10.802;2022-12-07T00:13:55;2.90;99.90
11152;DHT22;5630;49.342;10.802;2022-12-07T00:16:24;2.90;99.90
11152;DHT22;5630;49.342;10.802;2022-12-07T00:18:49;2.90;99.90
11152;DHT22;5630;49.342;10.802;2022-12-07T00:21:18;2.90;99.90
11152;DHT22;5630;49.342;10.802;2022-12-07T00:23:45;2.90;99.90
11152;DHT22;5630;49.342;10.802;2022-12-07T00:26:19;2.90;99.90
11152;DHT22;5630;49.342;10.802;2022-12-07T00:28:49;2.90;99.90
11152;DHT22;5630;49.342;10.802;2022-12-07T00:31:16;2.90;99.90
11152;DHT22;5630;49.342;10.802;2022-12-07T00:33:42;2.90;99.90
11152;DHT22;5630;49.342;10.802;2022-12-07T00:36:11;2.90;99.90
11152;DHT22;5630;49.342;10.802;2022-12-07T00:38:38;2.80;99.90
11152;DHT22;5630;49.342;10.802;2022-12-07T00:41:23;2.80;99.90
11152;DHT22;5630;49.342;10.802;2022-12-07T00:43:50;2.70;99.90
11152;DHT22;5630;49.342;10.802;2022-12-07T00:46:16;2.80;99.90
11152;DHT22;5630;49.342;10.802;2022-12-07T00:48:43;2.70;99.90
11152;DHT22;5630;49.342;10.802;2022-12-07T00:51:14;2.80;99.90
11152;DHT22;5630;49.342;10.802;2022-12-07T00:53:40;2.80;99.90
11152;DHT22;5630;49.342;10.802;2022-12-07T00:56:12;2.80;99.90
11152;DHT22;5630;49.342;10.802;2022-12-07T00:58:38;2.80;99.90
11152;DHT22;5630;49.342;10.802;2022-12-07T01:01:05;2.80;99.90
11152;DHT22;5630;49.342;10.802;2022-12-07T01:03:32;2.80;99.90
11152;DHT22;5630;49.342;10.802;2022-12-07T01:05:58;2.80;99.90
11152;DHT22;5630;49.342;10.802;2022-12-07T01:08:24;2.80;99.90
11152;DHT22;5630;49.342;10.802;2022-12-07T01:11:01;2.80;99.90
11152;DHT22;5630;49.342;10.802;2022-12-07T01:13:26;2.80;99.90
11152;DHT22;5630;49.342;10.802;2022-12-07T01:15:57;2.80;99.90
11152;DHT22;5630;49.342;10.802;2022-12-07T01:18:23;2.80;99.90
11152;DHT22;5630;49.342;10.802;2022-12-07T01:20:58;2.80;99.90
11152;DHT22;5630;49.342;10.802;2022-12-07T01:23:24;2.90;99.90
11152;DHT22;5630;49.342;10.802;2022-12-07T01:26:01;2.90;99.90
11152;DHT22;5630;49.342;10.802;2022-12-07T01:28:27;2.90;99.90
11152;DHT22;5630;49.342;10.802;2022-12-07T01:31:21;2.90;99.90
11152;DHT22;5630;49.342;10.802;2022-12-07T01:33:49;2.90;99.90
11152;DHT22;5630;49.342;10.802;2022-12-07T01:36:20;2.90;99.90
11152;DHT22;5630;49.342;10.802;2022-12-07T01:38:48;2.80;99.90
11152;DHT22;5630;49.342;10.802;2022-12-07T01:41:14;2.80;99.90
11152;DHT22;5630;49.342;10.802;2022-12-07T01:46:46;2.80;99.90
11152;DHT22;5630;49.342;10.802;2022-12-07T01:51:45;2.80;99.90
11152;DHT22;5630;49.342;10.802;2022-12-07T01:54:13;2.90;99.90
11152;DHT22;5630;49.342;10.802;2022-12-07T01:56:44;2.90;99.90
11152;DHT22;5630;49.342;10.802;2022-12-07T01:59:11;2.90;99.90
11152;DHT22;5630;49.342;10.802;2022-12-07T02:01:36;2.90;99.90
11152;DHT22;5630;49.342;10.802;2022-12-07T02:04:02;2.90;99.90
11152;DHT22;5630;49.342;10.802;2022-12-07T02:06:28;2.90;99.90
11152;DHT22;5630;49.342;10.802;2022-12-07T02:08:54;2.90;99.90
11152;DHT22;5630;49.342;10.802;2022-12-07T02:11:20;2.90;99.90
11152;DHT22;5630;49.342;10.802;2022-12-07T02:13:46;2.90;99.90
11152;DHT22;5630;49.342;10.802;2022-12-07T02:18:44;2.80;99.90
11152;DHT22;5630;49.342;10.802;2022-12-07T02:21:26;2.90;99.90
11152;DHT22;5630;49.342;10.802;2022-12-07T02:24:14;2.80;99.90
11152;DHT22;5630;49.342;10.802;2022-12-07T02:27:10;2.90;99.90
11152;DHT22;5630;49.342;10.802;2022-12-07T02:29:47;2.90;99.90
11152;DHT22;5630;49.342;10.802;2022-12-07T02:32:29;2.90;99.90
11152;DHT22;5630;49.342;10.802;2022-12-07T02:35:06;2.80;99.90
11152;DHT22;5630;49.342;10.802;2022-12-07T02:37:45;2.90;99.90
11152;DHT22;5630;49.342;10.802;2022-12-07T02:40:25;2.80;99.90
11152;DHT22;5630;49.342;10.802;2022-12-07T02:45:45;2.80;99.90
11152;DHT22;5630;49.342;10.802;2022-12-07T02:48:13;2.80;99.90
11152;DHT22;5630;49.342;10.802;2022-12-07T02:50:48;2.80;99.90
11152;DHT22;5630;49.342;10.802;2022-12-07T02:53:38;2.80;99.90
11152;DHT22;5630;49.342;10.802;2022-12-07T02:59:34;2.80;99.90
11152;DHT22;5630;49.342;10.802;2022-12-07T03:02:31;2.80;99.90
11152;DHT22;5630;49.342;10.802;2022-12-07T03:05:12;2.80;99.90
11152;DHT22;5630;49.342;10.802;2022-12-07T03:13:12;2.60;99.90
11152;DHT22;5630;49.342;10.802;2022-12-07T03:15:58;2.60;99.90
11152;DHT22;5630;49.342;10.802;2022-12-07T03:18:28;2.60;99.90
11152;DHT22;5630;49.342;10.802;2022-12-07T03:20:58;2.60;99.90
11152;DHT22;5630;49.342;10.802;2022-12-07T03:23:25;2.60;99.90
11152;DHT22;5630;49.342;10.802;2022-12-07T03:25:55;2.50;99.90
11152;DHT22;5630;49.342;10.802;2022-12-07T03:28:24;2.40;99.90
11152;DHT22;5630;49.342;10.802;2022-12-07T03:30:57;2.40;99.90
11152;DHT22;5630;49.342;10.802;2022-12-07T03:33:40;2.30;99.90
11152;DHT22;5630;49.342;10.802;2022-12-07T03:36:13;2.30;99.90
11152;DHT22;5630;49.342;10.802;2022-12-07T03:38:46;2.10;99.90
11152;DHT22;5630;49.342;10.802;2022-12-07T03:41:28;2.10;99.90
11152;DHT22;5630;49.342;10.802;2022-12-07T03:43:55;2.20;99.90
11152;DHT22;5630;49.342;10.802;2022-12-07T03:46:44;2.20;99.90
11152;DHT22;5630;49.342;10.802;2022-12-07T03:49:27;2.10;99.90
11152;DHT22;5630;49.342;10.802;2022-12-07T03:54:41;2.00;99.90
11152;DHT22;5630;49.342;10.802;2022-12-07T03:57:09;2.00;99.90
11152;DHT22;5630;49.342;10.802;2022-12-07T03:59:36;2.00;99.90
11152;DHT22;5630;49.342;10.802;2022-12-07T04:02:05;1.90;99.90
11152;DHT22;5630;49.342;10.802;2022-12-07T04:04:31;2.00;99.90
11152;DHT22;5630;49.342;10.802;2022-12-07T04:06:57;1.90;99.90
11152;DHT22;5630;49.342;10.802;2022-12-07T04:09:23;1.90;99.90
11152;DHT22;5630;49.342;10.802;2022-12-07T04:11:49;1.90;99.90
11152;DHT22;5630;49.342;10.802;2022-12-07T04:14:14;1.80;99.90
11152;DHT22;5630;49.342;10.802;2022-12-07T04:16:47;1.80;99.90
11152;DHT22;5630;49.342;10.802;2022-12-07T04:19:14;1.90;99.90
11152;DHT22;5630;49.342;10.802;2022-12-07T04:21:40;1.80;99.90
11152;DHT22;5630;49.342;10.802;2022-12-07T04:24:05;1.90;99.90
11152;DHT22;5630;49.342;10.802;2022-12-07T04:26:31;1.90;99.90
11152;DHT22;5630;49.342;10.802;2022-12-07T04:28:57;1.80;99.90
11152;DHT22;5630;49.342;10.802;2022-12-07T04:31:22;1.80;99.90
11152;DHT22;5630;49.342;10.802;2022-12-07T04:33:48;1.80;99.90
11152;DHT22;5630;49.342;10.802;2022-12-07T04:36:13;1.90;99.90
11152;DHT22;5630;49.342;10.802;2022-12-07T04:38:39;1.80;99.90
11152;DHT22;5630;49.342;10.802;2022-12-07T04:41:06;1.90;99.90
11152;DHT22;5630;49.342;10.802;2022-12-07T04:43:31;1.90;99.90
11152;DHT22;5630;49.342;10.802;2022-12-07T04:45:57;1.80;99.90
11152;DHT22;5630;49.342;10.802;2022-12-07T04:48:22;1.90;99.90
11152;DHT22;5630;49.342;10.802;2022-12-07T04:50:48;1.90;99.90
11152;DHT22;5630;49.342;10.802;2022-12-07T04:53:17;1.90;99.90
11152;DHT22;5630;49.342;10.802;2022-12-07T04:55:44;1.90;99.90
11152;DHT22;5630;49.342;10.802;2022-12-07T04:58:10;1.90;99.90
11152;DHT22;5630;49.342;10.802;2022-12-07T05:00:35;1.80;99.90
11152;DHT22;5630;49.342;10.802;2022-12-07T05:03:01;1.80;99.90
11152;DHT22;5630;49.342;10.802;2022-12-07T05:05:26;1.90;99.90
11152;DHT22;5630;49.342;10.802;2022-12-07T05:07:53;1.90;99.90
11152;DHT22;5630;49.342;10.802;2022-12-07T05:10:18;1.90;99.90
11152;DHT22;5630;49.342;10.802;2022-12-07T05:12:44;1.90;99.90
11152;DHT22;5630;49.342;10.802;2022-12-07T05:15:10;1.90;99.90
11152;DHT22;5630;49.342;10.802;2022-12-07T05:17:36;1.90;99.90
11152;DHT22;5630;49.342;10.802;2022-12-07T05:20:02;1.80;99.90
11152;DHT22;5630;49.342;10.802;2022-12-07T05:22:27;1.80;99.90
11152;DHT22;5630;49.342;10.802;2022-12-07T05:24:56;1.90;99.90
11152;DHT22;5630;49.342;10.802;2022-12-07T05:27:22;1.90;99.90
11152;DHT22;5630;49.342;10.802;2022-12-07T05:29:49;1.90;99.90
11152;DHT22;5630;49.342;10.802;2022-12-07T05:32:14;1.90;99.90
11152;DHT22;5630;49.342;10.802;2022-12-07T05:34:40;1.90;99.90
11152;DHT22;5630;49.342;10.802;2022-12-07T05:37:05;1.80;99.90
11152;DHT22;5630;49.342;10.802;2022-12-07T05:39:31;1.80;99.90
11152;DHT22;5630;49.342;10.802;2022-12-07T05:41:56;1.80;99.90
11152;DHT22;5630;49.342;10.802;2022-12-07T05:44:40;1.90;99.90
11152;DHT22;5630;49.342;10.802;2022-12-07T05:47:06;1.80;99.90
11152;DHT22;5630;49.342;10.802;2022-12-07T05:49:32;1.90;99.90
11152;DHT22;5630;49.342;10.802;2022-12-07T05:51:58;1.90;99.90
11152;DHT22;5630;49.342;10.802;2022-12-07T05:54:24;1.90;99.90
11152;DHT22;5630;49.342;10.802;2022-12-07T05:56:50;1.90;99.90
11152;DHT22;5630;49.342;10.802;2022-12-07T05:59:16;1.90;99.90
11152;DHT22;5630;49.342;10.802;2022-12-07T06:01:48;1.90;99.90
11152;DHT22;5630;49.342;10.802;2022-12-07T06:04:14;1.90;99.90
11152;DHT22;5630;49.342;10.802;2022-12-07T06:06:39;1.90;99.90
11152;DHT22;5630;49.342;10.802;2022-12-07T06:09:05;1.90;99.90
11152;DHT22;5630;49.342;10.802;2022-12-07T06:11:31;1.90;99.90
11152;DHT22;5630;49.342;10.802;2022-12-07T06:14:15;1.80;99.90
11152;DHT22;5630;49.342;10.802;2022-12-07T06:16:41;1.90;99.90
11152;DHT22;5630;49.342;10.802;2022-12-07T06:19:06;1.90;99.90
11152;DHT22;5630;49.342;10.802;2022-12-07T06:21:32;1.90;99.90
11152;DHT22;5630;49.342;10.802;2022-12-07T06:23:57;1.90;99.90
11152;DHT22;5630;49.342;10.802;2022-12-07T06:26:23;1.90;99.90
11152;DHT22;5630;49.342;10.802;2022-12-07T06:28:48;1.90;99.90
11152;DHT22;5630;49.342;10.802;2022-12-07T06:31:14;1.90;99.90
11152;DHT22;5630;49.342;10.802;2022-12-07T06:33:41;2.00;99.90
11152;DHT22;5630;49.342;10.802;2022-12-07T06:36:07;2.00;99.90
11152;DHT22;5630;49.342;10.802;2022-12-07T06:38:32;2.00;99.90
11152;DHT22;5630;49.342;10.802;2022-12-07T06:40:58;2.00;99.90
11152;DHT22;5630;49.342;10.802;2022-12-07T06:43:23;2.00;99.90
11152;DHT22;5630;49.342;10.802;2022-12-07T06:45:49;2.00;99.90
11152;DHT22;5630;49.342;10.802;2022-12-07T06:48:14;2.10;99.90
11152;DHT22;5630;49.342;10.802;2022-12-07T06:50:40;2.20;99.90
11152;DHT22;5630;49.342;10.802;2022-12-07T06:53:05;2.40;99.90
11152;DHT22;5630;49.342;10.802;2022-12-07T06:55:31;2.60;99.90
11152;DHT22;5630;49.342;10.802;2022-12-07T06:57:56;2.60;99.90
11152;DHT22;5630;49.342;10.802;2022-12-07T07:00:23;2.60;99.90
11152;DHT22;5630;49.342;10.802;2022-12-07T07:02:48;2.70;99.90
11152;DHT22;5630;49.342;10.802;2022-12-07T07:05:14;2.70;99.90
11152;DHT22;5630;49.342;10.802;2022-12-07T07:07:41;2.90;99.90
11152;DHT22;5630;49.342;10.802;2022-12-07T07:10:06;2.70;99.90
11152;DHT22;5630;49.342;10.802;2022-12-07T07:12:32;2.60;99.90
11152;DHT22;5630;49.342;10.802;2022-12-07T07:14:57;2.40;99.90
11152;DHT22;5630;49.342;10.802;2022-12-07T07:17:23;2.40;99.90
11152;DHT22;5630;49.342;10.802;2022-12-07T07:19:49;2.40;99.90
11152;DHT22;5630;49.342;10.802;2022-12-07T07:22:14;2.40;99.90
11152;DHT22;5630;49.342;10.802;2022-12-07T07:24:40;2.30;99.90
11152;DHT22;5630;49.342;10.802;2022-12-07T07:27:06;2.30;99.90
11152;DHT22;5630;49.342;10.802;2022-12-07T07:29:31;2.30;99.90
11152;DHT22;5630;49.342;10.802;2022-12-07T07:31:57;2.40;99.90
11152;DHT22;5630;49.342;10.802;2022-12-07T07:34:22;2.30;99.90
11152;DHT22;5630;49.342;10.802;2022-12-07T07:36:48;2.40;99.90
11152;DHT22;5630;49.342;10.802;2022-12-07T07:39:13;2.40;99.90
11152;DHT22;5630;49.342;10.802;2022-12-07T07:41:39;2.40;99.90
11152;DHT22;5630;49.342;10.802;2022-12-07T07:44:04;2.40;99.90
11152;DHT22;5630;49.342;10.802;2022-12-07T07:46:30;2.40;99.90
11152;DHT22;5630;49.342;10.802;2022-12-07T07:48:56;2.40;99.90
11152;DHT22;5630;49.342;10.802;2022-12-07T07:51:22;2.40;99.90
11152;DHT22;5630;49.342;10.802;2022-12-07T07:53:47;2.40;99.90
11152;DHT22;5630;49.342;10.802;2022-12-07T07:56:13;2.40;99.90
11152;DHT22;5630;49.342;10.802;2022-12-07T07:58:38;3.50;99.90
11152;DHT22;5630;49.342;10.802;2022-12-07T08:01:05;4.90;99.90
11152;DHT22;5630;49.342;10.802;2022-12-07T08:03:31;5.80;99.90
11152;DHT22;5630;49.342;10.802;2022-12-07T08:05:57;5.60;99.90
11152;DHT22;5630;49.342;10.802;2022-12-07T08:08:22;5.30;99.90
11152;DHT22;5630;49.342;10.802;2022-12-07T08:10:48;5.10;99.90
11152;DHT22;5630;49.342;10.802;2022-12-07T08:13:15;4.50;99.90
11152;DHT22;5630;49.342;10.802;2022-12-07T08:15:43;4.10;99.90
11152;DHT22;5630;49.342;10.802;2022-12-07T08:18:09;3.90;99.90
11152;DHT22;5630;49.342;10.802;2022-12-07T08:20:36;3.70;99.90
11152;DHT22;5630;49.342;10.802;2022-12-07T08:23:02;3.60;99.90
11152;DHT22;5630;49.342;10.802;2022-12-07T08:25:27;3.40;99.90
11152;DHT22;5630;49.342;10.802;2022-12-07T08:27:53;3.30;99.90
11152;DHT22;5630;49.342;10.802;2022-12-07T08:30:19;3.20;99.90
11152;DHT22;5630;49.342;10.802;2022-12-07T08:32:46;3.20;99.90
11152;DHT22;5630;49.342;10.802;2022-12-07T08:35:11;3.20;99.90
11152;DHT22;5630;49.342;10.802;2022-12-07T08:37:38;3.10;99.90
11152;DHT22;5630;49.342;10.802;2022-12-07T08:40:05;3.10;99.90
11152;DHT22;5630;49.342;10.802;2022-12-07T08:42:31;3.10;99.90
11152;DHT22;5630;49.342;10.802;2022-12-07T08:45:08;3.10;99.90
11152;DHT22;5630;49.342;10.802;2022-12-07T08:47:37;3.20;99.90
11152;DHT22;5630;49.342;10.802;2022-12-07T08:50:04;3.10;99.90
11152;DHT22;5630;49.342;10.802;2022-12-07T08:52:31;3.20;99.90
11152;DHT22;5630;49.342;10.802;2022-12-07T08:54:59;3.20;99.90
11152;DHT22;5630;49.342;10.802;2022-12-07T08:57:26;3.10;99.90
11152;DHT22;5630;49.342;10.802;2022-12-07T08:59:53;3.20;99.90
11152;DHT22;5630;49.342;10.802;2022-12-07T09:02:19;3.20;99.90
11152;DHT22;5630;49.342;10.802;2022-12-07T09:04:44;3.20;99.90
11152;DHT22;5630;49.342;10.802;2022-12-07T09:07:10;3.10;99.90
11152;DHT22;5630;49.342;10.802;2022-12-07T09:09:36;3.10;99.90
11152;DHT22;5630;49.342;10.802;2022-12-07T09:12:02;3.10;99.90
11152;DHT22;5630;49.342;10.802;2022-12-07T09:14:27;3.10;99.90
11152;DHT22;5630;49.342;10.802;2022-12-07T09:16:53;3.10;99.90
11152;DHT22;5630;49.342;10.802;2022-12-07T09:19:19;3.10;99.90
11152;DHT22;5630;49.342;10.802;2022-12-07T09:21:44;3.10;99.90
11152;DHT22;5630;49.342;10.802;2022-12-07T09:24:12;3.10;99.90
11152;DHT22;5630;49.342;10.802;2022-12-07T09:26:37;3.10;99.90
11152;DHT22;5630;49.342;10.802;2022-12-07T09:29:04;3.10;99.90
11152;DHT22;5630;49.342;10.802;2022-12-07T09:31:30;3.00;99.90
11152;DHT22;5630;49.342;10.802;2022-12-07T09:33:57;3.00;99.90
11152;DHT22;5630;49.342;10.802;2022-12-07T09:36:23;3.10;99.90
11152;DHT22;5630;49.342;10.802;2022-12-07T09:38:49;3.10;99.90
11152;DHT22;5630;49.342;10.802;2022-12-07T09:41:14;3.10;99.90
11152;DHT22;5630;49.342;10.802;2022-12-07T09:43:41;3.10;99.90
11152;DHT22;5630;49.342;10.802;2022-12-07T09:46:13;3.10;99.90
11152;DHT22;5630;49.342;10.802;2022-12-07T09:48:42;3.10;99.90
11152;DHT22;5630;49.342;10.802;2022-12-07T09:51:26;3.10;99.90
11152;DHT22;5630;49.342;10.802;2022-12-07T09:53:53;3.10;99.90
11152;DHT22;5630;49.342;10.802;2022-12-07T09:56:20;3.20;99.90
11152;DHT22;5630;49.342;10.802;2022-12-07T09:58:47;3.20;99.90
11152;DHT22;5630;49.342;10.802;2022-12-07T10:01:19;3.10;99.90
11152;DHT22;5630;49.342;10.802;2022-12-07T10:03:53;3.10;99.90
11152;DHT22;5630;49.342;10.802;2022-12-07T10:06:19;3.10;99.90
11152;DHT22;5630;49.342;10.802;2022-12-07T10:08:45;3.10;99.90
11152;DHT22;5630;49.342;10.802;2022-12-07T10:11:11;3.20;99.90
11152;DHT22;5630;49.342;10.802;2022-12-07T10:13:39;3.20;99.90
11152;DHT22;5630;49.342;10.802;2022-12-07T10:16:06;3.20;99.90
11152;DHT22;5630;49.342;10.802;2022-12-07T10:21:15;3.20;99.90
11152;DHT22;5630;49.342;10.802;2022-12-07T10:24:05;3.10;99.90
11152;DHT22;5630;49.342;10.802;2022-12-07T10:26:38;3.20;99.90
11152;DHT22;5630;49.342;10.802;2022-12-07T10:29:17;3.20;99.90
11152;DHT22;5630;49.342;10.802;2022-12-07T10:31:45;3.20;99.90
11152;DHT22;5630;49.342;10.802;2022-12-07T10:34:40;3.20;99.90
11152;DHT22;5630;49.342;10.802;2022-12-07T10:37:16;3.30;99.90
11152;DHT22;5630;49.342;10.802;2022-12-07T10:39:47;3.30;99.90
11152;DHT22;5630;49.342;10.802;2022-12-07T10:42:22;3.20;99.90
11152;DHT22;5630;49.342;10.802;2022-12-07T10:44:49;3.20;99.90
11152;DHT22;5630;49.342;10.802;2022-12-07T10:47:44;3.20;99.90
11152;DHT22;5630;49.342;10.802;2022-12-07T10:50:22;3.30;99.90
11152;DHT22;5630;49.342;10.802;2022-12-07T10:53:18;3.30;99.90
11152;DHT22;5630;49.342;10.802;2022-12-07T10:56:19;3.30;99.90
11152;DHT22;5630;49.342;10.802;2022-12-07T10:59:07;3.30;99.90
11152;DHT22;5630;49.342;10.802;2022-12-07T11:01:42;3.40;99.90
11152;DHT22;5630;49.342;10.802;2022-12-07T11:04:38;3.50;99.90
11152;DHT22;5630;49.342;10.802;2022-12-07T11:07:18;3.50;99.90
11152;DHT22;5630;49.342;10.802;2022-12-07T11:12:43;3.50;99.90
11152;DHT22;5630;49.342;10.802;2022-12-07T11:18:17;3.60;99.90
11152;DHT22;5630;49.342;10.802;2022-12-07T11:21:48;3.60;99.90
11152;DHT22;5630;49.342;10.802;2022-12-07T11:24:07;3.60;99.90
11152;DHT22;5630;49.342;10.802;2022-12-07T11:29:47;3.60;99.90
11152;DHT22;5630;49.342;10.802;2022-12-07T11:32:22;3.60;99.90
11152;DHT22;5630;49.342;10.802;2022-12-07T11:37:37;3.70;99.90
11152;DHT22;5630;49.342;10.802;2022-12-07T11:40:05;3.70;99.90
11152;DHT22;5630;49.342;10.802;2022-12-07T11:42:42;3.60;99.90
11152;DHT22;5630;49.342;10.802;2022-12-07T11:45:22;3.60;99.90
11152;DHT22;5630;49.342;10.802;2022-12-07T11:50:41;3.60;99.90
11152;DHT22;5630;49.342;10.802;2022-12-07T11:53:30;3.70;99.90
11152;DHT22;5630;49.342;10.802;2022-12-07T12:03:47;3.70;99.90
11152;DHT22;5630;49.342;10.802;2022-12-07T12:06:13;3.60;99.90
11152;DHT22;5630;49.342;10.802;2022-12-07T12:08:50;3.70;99.90
11152;DHT22;5630;49.342;10.802;2022-12-07T12:17:12;3.70;99.90
11152;DHT22;5630;49.342;10.802;2022-12-07T12:22:22;3.60;99.90
11152;DHT22;5630;49.342;10.802;2022-12-07T12:24:54;3.60;99.90
11152;DHT22;5630;49.342;10.802;2022-12-07T12:27:33;3.70;99.90
11152;DHT22;5630;49.342;10.802;2022-12-07T12:30:02;3.70;99.90
11152;DHT22;5630;49.342;10.802;2022-12-07T12:32:42;3.70;99.90
11152;DHT22;5630;49.342;10.802;2022-12-07T12:37:53;3.70;99.90
11152;DHT22;5630;49.342;10.802;2022-12-07T12:42:47;3.70;99.90
11152;DHT22;5630;49.342;10.802;2022-12-07T12:47:57;3.70;99.90
11152;DHT22;5630;49.342;10.802;2022-12-07T12:50:43;3.70;99.90
11152;DHT22;5630;49.342;10.802;2022-12-07T12:53:25;3.60;99.90
11152;DHT22;5630;49.342;10.802;2022-12-07T13:05:01;3.60;99.90
11152;DHT22;5630;49.342;10.802;2022-12-07T13:15:51;3.60;99.90
11152;DHT22;5630;49.342;10.802;2022-12-07T13:23:59;3.70;99.90
11152;DHT22;5630;49.342;10.802;2022-12-07T13:31:39;3.70;99.90
11152;DHT22;5630;49.342;10.802;2022-12-07T13:34:27;3.70;99.90
11152;DHT22;5630;49.342;10.802;2022-12-07T13:36:51;3.70;99.90
11152;DHT22;5630;49.342;10.802;2022-12-07T13:39:22;3.70;99.90
11152;DHT22;5630;49.342;10.802;2022-12-07T13:41:57;3.70;99.90
11152;DHT22;5630;49.342;10.802;2022-12-07T13:44:24;3.70;99.90
11152;DHT22;5630;49.342;10.802;2022-12-07T13:46:52;3.70;99.90
11152;DHT22;5630;49.342;10.802;2022-12-07T13:49:30;3.70;99.90
11152;DHT22;5630;49.342;10.802;2022-12-07T13:52:20;3.70;99.90
11152;DHT22;5630;49.342;10.802;2022-12-07T13:54:48;3.70;99.90
11152;DHT22;5630;49.342;10.802;2022-12-07T13:57:16;3.70;99.90
11152;DHT22;5630;49.342;10.802;2022-12-07T13:59:42;3.70;99.90
11152;DHT22;5630;49.342;10.802;2022-12-07T14:04:49;3.60;99.90
11152;DHT22;5630;49.342;10.802;2022-12-07T14:07:27;4.50;99.90
11152;DHT22;5630;49.342;10.802;2022-12-07T14:09:59;5.20;99.90
11152;DHT22;5630;49.342;10.802;2022-12-07T14:12:26;4.90;99.90
11152;DHT22;5630;49.342;10.802;2022-12-07T14:14:52;4.70;99.90
11152;DHT22;5630;49.342;10.802;2022-12-07T14:17:21;4.50;99.90
11152;DHT22;5630;49.342;10.802;2022-12-07T14:24:48;4.20;99.90
11152;DHT22;5630;49.342;10.802;2022-12-07T14:27:23;4.00;99.90
11152;DHT22;5630;49.342;10.802;2022-12-07T14:29:51;3.90;99.90
11152;DHT22;5630;49.342;10.802;2022-12-07T14:32:27;3.80;99.90
11152;DHT22;5630;49.342;10.802;2022-12-07T14:34:59;3.80;99.90
11152;DHT22;5630;49.342;10.802;2022-12-07T14:37:25;3.70;99.90
11152;DHT22;5630;49.342;10.802;2022-12-07T14:39:51;3.70;99.90
11152;DHT22;5630;49.342;10.802;2022-12-07T14:42:17;3.70;99.90
11152;DHT22;5630;49.342;10.802;2022-12-07T14:44:43;3.60;99.90
11152;DHT22;5630;49.342;10.802;2022-12-07T14:47:10;3.50;99.90
11152;DHT22;5630;49.342;10.802;2022-12-07T14:49:36;3.50;99.90
11152;DHT22;5630;49.342;10.802;2022-12-07T14:52:01;3.50;99.90
11152;DHT22;5630;49.342;10.802;2022-12-07T14:54:29;3.50;99.90
11152;DHT22;5630;49.342;10.802;2022-12-07T14:56:56;3.50;99.90
11152;DHT22;5630;49.342;10.802;2022-12-07T14:59:21;3.50;99.90
11152;DHT22;5630;49.342;10.802;2022-12-07T15:01:47;3.50;99.90
11152;DHT22;5630;49.342;10.802;2022-12-07T15:04:12;3.40;99.90
11152;DHT22;5630;49.342;10.802;2022-12-07T15:06:38;3.40;99.90
11152;DHT22;5630;49.342;10.802;2022-12-07T15:09:04;3.50;99.90
11152;DHT22;5630;49.342;10.802;2022-12-07T15:11:30;3.50;99.90
11152;DHT22;5630;49.342;10.802;2022-12-07T15:13:56;3.40;99.90
11152;DHT22;5630;49.342;10.802;2022-12-07T15:16:36;3.40;99.90
11152;DHT22;5630;49.342;10.802;2022-12-07T15:19:02;3.40;99.90
11152;DHT22;5630;49.342;10.802;2022-12-07T15:21:28;3.40;99.90
11152;DHT22;5630;49.342;10.802;2022-12-07T15:23:53;3.50;99.90
11152;DHT22;5630;49.342;10.802;2022-12-07T15:26:19;3.50;99.90
11152;DHT22;5630;49.342;10.802;2022-12-07T15:28:45;4.30;99.90
11152;DHT22;5630;49.342;10.802;2022-12-07T15:31:15;4.90;99.90
11152;DHT22;5630;49.342;10.802;2022-12-07T15:33:42;4.60;99.90
11152;DHT22;5630;49.342;10.802;2022-12-07T15:36:08;4.30;99.90
11152;DHT22;5630;49.342;10.802;2022-12-07T15:38:38;4.20;99.90
11152;DHT22;5630;49.342;10.802;2022-12-07T15:41:03;4.10;99.90
11152;DHT22;5630;49.342;10.802;2022-12-07T15:43:29;3.80;99.90
11152;DHT22;5630;49.342;10.802;2022-12-07T15:46:13;3.70;99.90
11152;DHT22;5630;49.342;10.802;2022-12-07T15:48:39;3.60;99.90
11152;DHT22;5630;49.342;10.802;2022-12-07T15:51:07;3.60;99.90
11152;DHT22;5630;49.342;10.802;2022-12-07T15:53:33;3.50;99.90
11152;DHT22;5630;49.342;10.802;2022-12-07T15:55:59;3.30;99.90
11152;DHT22;5630;49.342;10.802;2022-12-07T15:58:25;3.20;99.90
11152;DHT22;5630;49.342;10.802;2022-12-07T16:00:51;3.30;99.90
11152;DHT22;5630;49.342;10.802;2022-12-07T16:03:17;3.30;99.90
11152;DHT22;5630;49.342;10.802;2022-12-07T16:05:51;3.20;99.90
11152;DHT22;5630;49.342;10.802;2022-12-07T16:08:18;3.20;99.90
11152;DHT22;5630;49.342;10.802;2022-12-07T16:10:44;3.20;99.90
11152;DHT22;5630;49.342;10.802;2022-12-07T16:13:10;3.30;99.90
11152;DHT22;5630;49.342;10.802;2022-12-07T16:15:42;3.30;99.90
11152;DHT22;5630;49.342;10.802;2022-12-07T16:18:08;3.30;99.90
11152;DHT22;5630;49.342;10.802;2022-12-07T16:20:34;3.20;99.90
11152;DHT22;5630;49.342;10.802;2022-12-07T16:23:00;3.30;99.90
11152;DHT22;5630;49.342;10.802;2022-12-07T16:25:25;3.30;99.90
11152;DHT22;5630;49.342;10.802;2022-12-07T16:27:52;3.30;99.90
11152;DHT22;5630;49.342;10.802;2022-12-07T16:30:18;3.30;99.90
11152;DHT22;5630;49.342;10.802;2022-12-07T16:32:43;3.30;99.90
11152;DHT22;5630;49.342;10.802;2022-12-07T16:35:10;3.20;99.90
11152;DHT22;5630;49.342;10.802;2022-12-07T16:37:36;3.20;99.90
11152;DHT22;5630;49.342;10.802;2022-12-07T16:40:02;3.20;99.90
11152;DHT22;5630;49.342;10.802;2022-12-07T16:42:32;3.20;99.90
11152;DHT22;5630;49.342;10.802;2022-12-07T16:44:58;3.20;99.90
11152;DHT22;5630;49.342;10.802;2022-12-07T16:47:23;3.20;99.90
11152;DHT22;5630;49.342;10.802;2022-12-07T16:49:49;3.20;99.90
11152;DHT22;5630;49.342;10.802;2022-12-07T16:52:15;3.10;99.90
11152;DHT22;5630;49.342;10.802;2022-12-07T16:54:40;3.00;99.90
11152;DHT22;5630;49.342;10.802;2022-12-07T16:57:06;2.90;99.90
11152;DHT22;5630;49.342;10.802;2022-12-07T16:59:31;2.90;99.90
11152;DHT22;5630;49.342;10.802;2022-12-07T17:01:57;2.90;99.90
11152;DHT22;5630;49.342;10.802;2022-12-07T17:04:22;3.00;99.90
11152;DHT22;5630;49.342;10.802;2022-12-07T17:06:48;2.90;99.90
11152;DHT22;5630;49.342;10.802;2022-12-07T17:09:14;2.90;99.90
11152;DHT22;5630;49.342;10.802;2022-12-07T17:11:43;2.90;99.90
11152;DHT22;5630;49.342;10.802;2022-12-07T17:14:09;2.90;99.90
11152;DHT22;5630;49.342;10.802;2022-12-07T17:16:54;2.90;99.90
11152;DHT22;5630;49.342;10.802;2022-12-07T17:19:19;2.90;99.90
11152;DHT22;5630;49.342;10.802;2022-12-07T17:21:45;2.90;99.90
11152;DHT22;5630;49.342;10.802;2022-12-07T17:24:13;2.90;99.90
11152;DHT22;5630;49.342;10.802;2022-12-07T17:26:39;2.90;99.90
11152;DHT22;5630;49.342;10.802;2022-12-07T17:29:06;2.90;99.90
11152;DHT22;5630;49.342;10.802;2022-12-07T17:31:33;2.90;99.90
11152;DHT22;5630;49.342;10.802;2022-12-07T17:33:59;2.90;99.90
11152;DHT22;5630;49.342;10.802;2022-12-07T17:36:27;2.80;99.90
11152;DHT22;5630;49.342;10.802;2022-12-07T17:38:54;2.80;99.90
11152;DHT22;5630;49.342;10.802;2022-12-07T17:41:24;2.80;99.90